sensor_id;sensor_type;location;lat;lon;timestamp;temperature;humidity
23471;DHT22;11908;50.806;4.424;2022-12-18T00:01:42;-3.50;99.90
23471;DHT22;11908;50.806;4.424;2022-12-18T00:04:22;-3.50;99.90
23471;DHT22;11908;50.806;4.424;2022-12-18T00:06:48;-3.50;99.90
23471;DHT22;11908;50.806;4.424;2022-12-18T00:09:14;-3.50;99.90
23471;DHT22;11908;50.806;4.424;2022-12-18T00:11:39;-3.50;99.90
23471;DHT22;11908;50.806;4.424;2022-12-18T00:14:05;-3.40;99.90
23471;DHT22;11908;50.806;4.424;2022-12-18T00:16:31;-3.50;99.90
23471;DHT22;11908;50.806;4.424;2022-12-18T00:18:59;-3.50;99.90
23471;DHT22;11908;50.806;4.424;2022-12-18T00:21:25;-3.50;99.90
23471;DHT22;11908;50.806;4.424;2022-12-18T00:23:51;-3.60;99.90
23471;DHT22;11908;50.806;4.424;2022-12-18T00:26:20;-3.60;99.90
23471;DHT22;11908;50.806;4.424;2022-12-18T00:28:46;-3.60;99.90
23471;DHT22;11908;50.806;4.424;2022-12-18T00:31:14;-3.60;99.90
23471;DHT22;11908;50.806;4.424;2022-12-18T00:33:40;-3.60;99.90
23471;DHT22;11908;50.806;4.424;2022-12-18T00:36:20;-3.70;99.90
23471;DHT22;11908;50.806;4.424;2022-12-18T00:38:47;-3.70;99.90
23471;DHT22;11908;50.806;4.424;2022-12-18T00:41:13;-3.70;99.90
23471;DHT22;11908;50.806;4.424;2022-12-18T00:44:00;-3.80;99.90
23471;DHT22;11908;50.806;4.424;2022-12-18T00:46:25;-3.80;99.90
23471;DHT22;11908;50.806;4.424;2022-12-18T00:48:52;-3.60;99.90
23471;DHT22;11908;50.806;4.424;2022-12-18T00:51:18;-3.50;99.90
23471;DHT22;11908;50.806;4.424;2022-12-18T00:53:43;-3.50;99.90
23471;DHT22;11908;50.806;4.424;2022-12-18T00:56:09;-3.50;99.90
23471;DHT22;11908;50.806;4.424;2022-12-18T00:58:35;-3.60;99.90
23471;DHT22;11908;50.806;4.424;2022-12-18T01:01:00;-3.60;99.90
23471;DHT22;11908;50.806;4.424;2022-12-18T01:03:26;-3.60;99.90
23471;DHT22;11908;50.806;4.424;2022-12-18T01:05:51;-3.70;99.90
23471;DHT22;11908;50.806;4.424;2022-12-18T01:08:17;-3.70;99.90
23471;DHT22;11908;50.806;4.424;2022-12-18T01:10:43;-3.70;99.90
23471;DHT22;11908;50.806;4.424;2022-12-18T01:13:08;-3.80;99.90
23471;DHT22;11908;50.806;4.424;2022-12-18T01:15:34;-3.70;99.90
23471;DHT22;11908;50.806;4.424;2022-12-18T01:18:00;-3.60;99.90
23471;DHT22;11908;50.806;4.424;2022-12-18T01:20:25;-3.60;99.90
23471;DHT22;11908;50.806;4.424;2022-12-18T01:22:51;-3.60;99.90
23471;DHT22;11908;50.806;4.424;2022-12-18T01:25:17;-3.60;99.90
23471;DHT22;11908;50.806;4.424;2022-12-18T01:27:42;-3.60;99.90
23471;DHT22;11908;50.806;4.424;2022-12-18T01:30:09;-3.60;99.90
23471;DHT22;11908;50.806;4.424;2022-12-18T01:32:35;-3.60;99.90
23471;DHT22;11908;50.806;4.424;2022-12-18T01:35:00;-3.70;99.90
23471;DHT22;11908;50.806;4.424;2022-12-18T01:37:26;-3.70;99.90
23471;DHT22;11908;50.806;4.424;2022-12-18T01:39:52;-3.70;99.90
23471;DHT22;11908;50.806;4.424;2022-12-18T01:42:19;-3.70;99.90
23471;DHT22;11908;50.806;4.424;2022-12-18T01:45:02;-3.60;99.90
23471;DHT22;11908;50.806;4.424;2022-12-18T01:50:37;-3.60;99.90
23471;DHT22;11908;50.806;4.424;2022-12-18T01:53:12;-3.70;99.90
23471;DHT22;11908;50.806;4.424;2022-12-18T01:55:48;-3.80;99.90
23471;DHT22;11908;50.806;4.424;2022-12-18T01:58:14;-3.90;99.90
23471;DHT22;11908;50.806;4.424;2022-12-18T02:00:40;-3.90;99.90
23471;DHT22;11908;50.806;4.424;2022-12-18T02:03:06;-3.80;99.90
23471;DHT22;11908;50.806;4.424;2022-12-18T02:06:13;-3.80;99.90
23471;DHT22;11908;50.806;4.424;2022-12-18T02:16:56;-3.90;99.90
23471;DHT22;11908;50.806;4.424;2022-12-18T02:22:29;-4.20;99.90
23471;DHT22;11908;50.806;4.424;2022-12-18T02:25:23;-4.30;99.90
23471;DHT22;11908;50.806;4.424;2022-12-18T02:27:52;-4.50;99.90
23471;DHT22;11908;50.806;4.424;2022-12-18T02:30:20;-4.50;99.90
23471;DHT22;11908;50.806;4.424;2022-12-18T02:32:50;-4.50;99.90
23471;DHT22;11908;50.806;4.424;2022-12-18T02:35:23;-4.40;99.90
23471;DHT22;11908;50.806;4.424;2022-12-18T02:37:49;-4.50;99.90
23471;DHT22;11908;50.806;4.424;2022-12-18T02:40:17;-4.50;99.90
23471;DHT22;11908;50.806;4.424;2022-12-18T02:42:43;-4.50;99.90
23471;DHT22;11908;50.806;4.424;2022-12-18T02:45:09;-4.40;99.90
23471;DHT22;11908;50.806;4.424;2022-12-18T02:47:38;-4.40;99.90
23471;DHT22;11908;50.806;4.424;2022-12-18T02:50:34;-4.60;99.90
23471;DHT22;11908;50.806;4.424;2022-12-18T02:53:24;-4.60;99.90
23471;DHT22;11908;50.806;4.424;2022-12-18T02:56:15;-4.70;99.90
23471;DHT22;11908;50.806;4.424;2022-12-18T02:59:02;-4.80;99.90
23471;DHT22;11908;50.806;4.424;2022-12-18T03:01:41;-5.00;99.90
23471;DHT22;11908;50.806;4.424;2022-12-18T03:04:26;-5.00;99.90
23471;DHT22;11908;50.806;4.424;2022-12-18T03:07:04;-5.00;99.90
23471;DHT22;11908;50.806;4.424;2022-12-18T03:09:36;-5.00;99.90
23471;DHT22;11908;50.806;4.424;2022-12-18T03:12:14;-5.00;99.90
23471;DHT22;11908;50.806;4.424;2022-12-18T03:14:59;-5.00;99.90
23471;DHT22;11908;50.806;4.424;2022-12-18T03:17:27;-5.00;99.90
23471;DHT22;11908;50.806;4.424;2022-12-18T03:19:56;-5.00;99.90
23471;DHT22;11908;50.806;4.424;2022-12-18T03:22:23;-4.90;99.90
23471;DHT22;11908;50.806;4.424;2022-12-18T03:24:51;-4.90;99.90
23471;DHT22;11908;50.806;4.424;2022-12-18T03:27:19;-4.80;99.90
23471;DHT22;11908;50.806;4.424;2022-12-18T03:30:12;-4.80;99.90
23471;DHT22;11908;50.806;4.424;2022-12-18T03:32:52;-4.80;99.90
23471;DHT22;11908;50.806;4.424;2022-12-18T03:35:27;-4.80;99.90
23471;DHT22;11908;50.806;4.424;2022-12-18T03:37:54;-4.80;99.90
23471;DHT22;11908;50.806;4.424;2022-12-18T03:40:23;-4.80;99.90
23471;DHT22;11908;50.806;4.424;2022-12-18T03:42:55;-4.90;99.90
23471;DHT22;11908;50.806;4.424;2022-12-18T03:45:28;-4.90;99.90
23471;DHT22;11908;50.806;4.424;2022-12-18T03:48:08;-4.90;99.90
23471;DHT22;11908;50.806;4.424;2022-12-18T03:50:46;-5.00;99.90
23471;DHT22;11908;50.806;4.424;2022-12-18T03:55:40;-5.20;99.90
23471;DHT22;11908;50.806;4.424;2022-12-18T03:58:07;-5.30;99.90
23471;DHT22;11908;50.806;4.424;2022-12-18T04:00:33;-5.30;99.90
23471;DHT22;11908;50.806;4.424;2022-12-18T04:03:00;-5.20;99.90
23471;DHT22;11908;50.806;4.424;2022-12-18T04:05:27;-5.10;99.90
23471;DHT22;11908;50.806;4.424;2022-12-18T04:07:55;-5.00;99.90
23471;DHT22;11908;50.806;4.424;2022-12-18T04:10:21;-5.00;99.90
23471;DHT22;11908;50.806;4.424;2022-12-18T04:12:48;-5.10;99.90
23471;DHT22;11908;50.806;4.424;2022-12-18T04:15:13;-5.20;99.90
23471;DHT22;11908;50.806;4.424;2022-12-18T04:17:46;-5.20;99.90
23471;DHT22;11908;50.806;4.424;2022-12-18T04:20:13;-5.20;99.90
23471;DHT22;11908;50.806;4.424;2022-12-18T04:22:38;-5.30;99.90
23471;DHT22;11908;50.806;4.424;2022-12-18T04:25:04;-5.30;99.90
23471;DHT22;11908;50.806;4.424;2022-12-18T04:27:30;-5.20;99.90
23471;DHT22;11908;50.806;4.424;2022-12-18T04:29:56;-5.20;99.90
23471;DHT22;11908;50.806;4.424;2022-12-18T04:32:22;-5.30;99.90
23471;DHT22;11908;50.806;4.424;2022-12-18T04:34:47;-5.40;99.90
23471;DHT22;11908;50.806;4.424;2022-12-18T04:37:13;-5.40;99.90
23471;DHT22;11908;50.806;4.424;2022-12-18T04:39:39;-5.30;99.90
23471;DHT22;11908;50.806;4.424;2022-12-18T04:42:04;-5.30;99.90
23471;DHT22;11908;50.806;4.424;2022-12-18T04:44:30;-5.30;99.90
23471;DHT22;11908;50.806;4.424;2022-12-18T04:46:56;-5.40;99.90
23471;DHT22;11908;50.806;4.424;2022-12-18T04:49:22;-5.50;99.90
23471;DHT22;11908;50.806;4.424;2022-12-18T04:51:47;-5.50;99.90
23471;DHT22;11908;50.806;4.424;2022-12-18T04:54:13;-5.50;99.90
23471;DHT22;11908;50.806;4.424;2022-12-18T04:56:39;-5.50;99.90
23471;DHT22;11908;50.806;4.424;2022-12-18T04:59:05;-5.60;99.90
23471;DHT22;11908;50.806;4.424;2022-12-18T05:01:34;-5.60;99.90
23471;DHT22;11908;50.806;4.424;2022-12-18T05:04:00;-5.70;99.90
23471;DHT22;11908;50.806;4.424;2022-12-18T05:06:26;-5.60;99.90
23471;DHT22;11908;50.806;4.424;2022-12-18T05:08:52;-5.50;99.90
23471;DHT22;11908;50.806;4.424;2022-12-18T05:11:17;-5.40;99.90
23471;DHT22;11908;50.806;4.424;2022-12-18T05:13:44;-5.40;99.90
23471;DHT22;11908;50.806;4.424;2022-12-18T05:16:10;-5.40;99.90
23471;DHT22;11908;50.806;4.424;2022-12-18T05:18:37;-5.50;99.90
23471;DHT22;11908;50.806;4.424;2022-12-18T05:21:02;-5.50;99.90
23471;DHT22;11908;50.806;4.424;2022-12-18T05:23:29;-5.50;99.90
23471;DHT22;11908;50.806;4.424;2022-12-18T05:25:56;-5.60;99.90
23471;DHT22;11908;50.806;4.424;2022-12-18T05:28:23;-5.60;99.90
23471;DHT22;11908;50.806;4.424;2022-12-18T05:30:54;-5.70;99.90
23471;DHT22;11908;50.806;4.424;2022-12-18T05:33:21;-5.50;99.90
23471;DHT22;11908;50.806;4.424;2022-12-18T05:35:55;-5.60;99.90
23471;DHT22;11908;50.806;4.424;2022-12-18T05:38:22;-5.60;99.90
23471;DHT22;11908;50.806;4.424;2022-12-18T05:40:48;-5.50;99.90
23471;DHT22;11908;50.806;4.424;2022-12-18T05:43:14;-5.50;99.90
23471;DHT22;11908;50.806;4.424;2022-12-18T05:45:41;-5.40;99.90
23471;DHT22;11908;50.806;4.424;2022-12-18T05:48:07;-5.30;99.90
23471;DHT22;11908;50.806;4.424;2022-12-18T05:50:37;-5.30;99.90
23471;DHT22;11908;50.806;4.424;2022-12-18T05:53:04;-5.20;99.90
23471;DHT22;11908;50.806;4.424;2022-12-18T05:55:33;-5.20;99.90
23471;DHT22;11908;50.806;4.424;2022-12-18T05:57:59;-5.10;99.90
23471;DHT22;11908;50.806;4.424;2022-12-18T06:00:25;-4.90;99.90
23471;DHT22;11908;50.806;4.424;2022-12-18T06:02:51;-4.70;99.90
23471;DHT22;11908;50.806;4.424;2022-12-18T06:05:16;-4.50;99.90
23471;DHT22;11908;50.806;4.424;2022-12-18T06:07:42;-4.40;99.90
23471;DHT22;11908;50.806;4.424;2022-12-18T06:10:08;-4.40;99.90
23471;DHT22;11908;50.806;4.424;2022-12-18T06:12:34;-4.20;99.90
23471;DHT22;11908;50.806;4.424;2022-12-18T06:14:59;-4.20;99.90
23471;DHT22;11908;50.806;4.424;2022-12-18T06:17:33;-4.20;99.90
23471;DHT22;11908;50.806;4.424;2022-12-18T06:19:59;-4.40;99.90
23471;DHT22;11908;50.806;4.424;2022-12-18T06:22:25;-4.60;99.90
23471;DHT22;11908;50.806;4.424;2022-12-18T06:24:50;-4.40;99.90
23471;DHT22;11908;50.806;4.424;2022-12-18T06:27:16;-4.50;99.90
23471;DHT22;11908;50.806;4.424;2022-12-18T06:29:42;-4.30;99.90
23471;DHT22;11908;50.806;4.424;2022-12-18T06:32:08;-4.30;99.90
23471;DHT22;11908;50.806;4.424;2022-12-18T06:34:34;-4.20;99.90
23471;DHT22;11908;50.806;4.424;2022-12-18T06:37:00;-4.30;99.90
23471;DHT22;11908;50.806;4.424;2022-12-18T06:39:28;-4.30;99.90
23471;DHT22;11908;50.806;4.424;2022-12-18T06:41:54;-4.30;99.90
23471;DHT22;11908;50.806;4.424;2022-12-18T06:44:20;-4.30;99.90
23471;DHT22;11908;50.806;4.424;2022-12-18T06:46:45;-4.30;99.90
23471;DHT22;11908;50.806;4.424;2022-12-18T06:49:11;-4.30;99.90
23471;DHT22;11908;50.806;4.424;2022-12-18T06:51:37;-4.20;99.90
23471;DHT22;11908;50.806;4.424;2022-12-18T06:54:03;-4.30;99.90
23471;DHT22;11908;50.806;4.424;2022-12-18T06:56:29;-4.30;99.90
23471;DHT22;11908;50.806;4.424;2022-12-18T06:58:55;-4.30;99.90
23471;DHT22;11908;50.806;4.424;2022-12-18T07:01:21;-4.20;99.90
23471;DHT22;11908;50.806;4.424;2022-12-18T07:03:47;-4.20;99.90
23471;DHT22;11908;50.806;4.424;2022-12-18T07:06:19;-4.20;99.90
23471;DHT22;11908;50.806;4.424;2022-12-18T07:08:46;-4.10;99.90
23471;DHT22;11908;50.806;4.424;2022-12-18T07:11:12;-4.00;99.90
23471;DHT22;11908;50.806;4.424;2022-12-18T07:13:37;-3.90;99.90
23471;DHT22;11908;50.806;4.424;2022-12-18T07:16:11;-3.90;99.90
23471;DHT22;11908;50.806;4.424;2022-12-18T07:18:37;-3.70;99.90
23471;DHT22;11908;50.806;4.424;2022-12-18T07:21:04;-3.60;99.90
23471;DHT22;11908;50.806;4.424;2022-12-18T07:23:32;-3.50;99.90
23471;DHT22;11908;50.806;4.424;2022-12-18T07:26:04;-3.70;99.90
23471;DHT22;11908;50.806;4.424;2022-12-18T07:28:31;-3.70;99.90
23471;DHT22;11908;50.806;4.424;2022-12-18T07:30:57;-3.80;99.90
23471;DHT22;11908;50.806;4.424;2022-12-18T07:33:24;-3.80;99.90
23471;DHT22;11908;50.806;4.424;2022-12-18T07:35:50;-3.80;99.90
23471;DHT22;11908;50.806;4.424;2022-12-18T07:38:15;-3.80;99.90
23471;DHT22;11908;50.806;4.424;2022-12-18T07:40:41;-3.80;99.90
23471;DHT22;11908;50.806;4.424;2022-12-18T07:43:07;-3.70;99.90
23471;DHT22;11908;50.806;4.424;2022-12-18T07:45:32;-3.70;99.90
23471;DHT22;11908;50.806;4.424;2022-12-18T07:47:58;-3.70;99.90
23471;DHT22;11908;50.806;4.424;2022-12-18T07:50:24;-3.70;99.90
23471;DHT22;11908;50.806;4.424;2022-12-18T07:52:49;-3.60;99.90
23471;DHT22;11908;50.806;4.424;2022-12-18T07:55:15;-3.40;99.90
23471;DHT22;11908;50.806;4.424;2022-12-18T07:57:41;-3.40;99.90
23471;DHT22;11908;50.806;4.424;2022-12-18T08:00:07;-3.30;99.90
23471;DHT22;11908;50.806;4.424;2022-12-18T08:02:33;-3.30;99.90
23471;DHT22;11908;50.806;4.424;2022-12-18T08:04:59;-3.30;99.90
23471;DHT22;11908;50.806;4.424;2022-12-18T08:07:24;-3.30;99.90
23471;DHT22;11908;50.806;4.424;2022-12-18T08:09:50;-3.30;99.90
23471;DHT22;11908;50.806;4.424;2022-12-18T08:12:16;-3.20;99.90
23471;DHT22;11908;50.806;4.424;2022-12-18T08:14:41;-3.10;99.90
23471;DHT22;11908;50.806;4.424;2022-12-18T08:17:07;-3.10;99.90
23471;DHT22;11908;50.806;4.424;2022-12-18T08:19:33;-3.00;99.90
23471;DHT22;11908;50.806;4.424;2022-12-18T08:21:58;-3.00;99.90
23471;DHT22;11908;50.806;4.424;2022-12-18T08:24:24;-2.90;99.90
23471;DHT22;11908;50.806;4.424;2022-12-18T08:26:49;-2.70;99.90
23471;DHT22;11908;50.806;4.424;2022-12-18T08:29:16;-2.60;99.90
23471;DHT22;11908;50.806;4.424;2022-12-18T08:31:41;-2.50;99.90
23471;DHT22;11908;50.806;4.424;2022-12-18T08:34:07;-2.30;99.90
23471;DHT22;11908;50.806;4.424;2022-12-18T08:36:33;-2.00;99.90
23471;DHT22;11908;50.806;4.424;2022-12-18T08:38:59;-2.00;99.90
23471;DHT22;11908;50.806;4.424;2022-12-18T08:41:25;-1.90;99.90
23471;DHT22;11908;50.806;4.424;2022-12-18T08:43:50;-1.90;99.90
23471;DHT22;11908;50.806;4.424;2022-12-18T08:46:40;-2.00;99.90
23471;DHT22;11908;50.806;4.424;2022-12-18T08:49:07;-1.90;99.90
23471;DHT22;11908;50.806;4.424;2022-12-18T08:51:34;-1.80;99.90
23471;DHT22;11908;50.806;4.424;2022-12-18T08:54:00;-1.80;99.90
23471;DHT22;11908;50.806;4.424;2022-12-18T08:56:25;-1.70;99.90
23471;DHT22;11908;50.806;4.424;2022-12-18T08:58:52;-1.60;99.90
23471;DHT22;11908;50.806;4.424;2022-12-18T09:01:18;-1.50;99.90
23471;DHT22;11908;50.806;4.424;2022-12-18T09:03:44;-1.30;99.90
23471;DHT22;11908;50.806;4.424;2022-12-18T09:06:14;-1.20;99.90
23471;DHT22;11908;50.806;4.424;2022-12-18T09:08:40;-1.20;99.90
23471;DHT22;11908;50.806;4.424;2022-12-18T09:11:18;-1.30;99.90
23471;DHT22;11908;50.806;4.424;2022-12-18T09:13:44;-1.30;99.90
23471;DHT22;11908;50.806;4.424;2022-12-18T09:16:10;-1.30;99.90
23471;DHT22;11908;50.806;4.424;2022-12-18T09:18:35;-1.20;99.90
23471;DHT22;11908;50.806;4.424;2022-12-18T09:21:14;-1.20;99.90
23471;DHT22;11908;50.806;4.424;2022-12-18T09:23:40;-1.20;99.90
23471;DHT22;11908;50.806;4.424;2022-12-18T09:26:06;-1.20;99.90
23471;DHT22;11908;50.806;4.424;2022-12-18T09:28:32;-1.10;99.90
23471;DHT22;11908;50.806;4.424;2022-12-18T09:30:58;-1.00;99.90
23471;DHT22;11908;50.806;4.424;2022-12-18T09:33:24;-1.00;99.90
23471;DHT22;11908;50.806;4.424;2022-12-18T09:35:49;-1.00;99.90
23471;DHT22;11908;50.806;4.424;2022-12-18T09:38:18;-1.10;99.90
23471;DHT22;11908;50.806;4.424;2022-12-18T09:40:53;-1.10;99.90
23471;DHT22;11908;50.806;4.424;2022-12-18T09:43:37;-1.10;99.90
23471;DHT22;11908;50.806;4.424;2022-12-18T09:46:10;-0.90;99.90
23471;DHT22;11908;50.806;4.424;2022-12-18T09:48:44;-0.70;99.90
23471;DHT22;11908;50.806;4.424;2022-12-18T09:51:19;-0.70;99.90
23471;DHT22;11908;50.806;4.424;2022-12-18T09:53:56;-0.70;99.90
23471;DHT22;11908;50.806;4.424;2022-12-18T09:56:25;-0.80;99.90
23471;DHT22;11908;50.806;4.424;2022-12-18T09:59:00;-0.80;99.90
23471;DHT22;11908;50.806;4.424;2022-12-18T10:01:27;-0.60;99.90
23471;DHT22;11908;50.806;4.424;2022-12-18T10:03:54;-0.60;99.90
23471;DHT22;11908;50.806;4.424;2022-12-18T10:06:35;-0.50;99.90
23471;DHT22;11908;50.806;4.424;2022-12-18T10:14:47;-0.60;99.90
23471;DHT22;11908;50.806;4.424;2022-12-18T10:17:54;-0.50;99.90
23471;DHT22;11908;50.806;4.424;2022-12-18T10:20:46;-0.30;99.90
23471;DHT22;11908;50.806;4.424;2022-12-18T10:26:11;-0.10;99.90
23471;DHT22;11908;50.806;4.424;2022-12-18T10:28:39;-0.10;99.90
23471;DHT22;11908;50.806;4.424;2022-12-18T10:31:25;-0.10;99.90
23471;DHT22;11908;50.806;4.424;2022-12-18T10:33:53;0.00;99.90
23471;DHT22;11908;50.806;4.424;2022-12-18T10:36:20;0.00;99.90
23471;DHT22;11908;50.806;4.424;2022-12-18T10:38:46;0.00;99.90
23471;DHT22;11908;50.806;4.424;2022-12-18T10:43:44;0.10;99.90
23471;DHT22;11908;50.806;4.424;2022-12-18T10:51:06;0.10;99.90
23471;DHT22;11908;50.806;4.424;2022-12-18T10:53:33;0.30;99.90
23471;DHT22;11908;50.806;4.424;2022-12-18T10:56:00;0.40;99.90
23471;DHT22;11908;50.806;4.424;2022-12-18T10:58:38;0.50;99.90
23471;DHT22;11908;50.806;4.424;2022-12-18T11:01:17;0.60;99.90
23471;DHT22;11908;50.806;4.424;2022-12-18T11:06:18;0.80;99.90
23471;DHT22;11908;50.806;4.424;2022-12-18T11:09:09;0.90;99.90
23471;DHT22;11908;50.806;4.424;2022-12-18T11:11:57;1.00;99.90
23471;DHT22;11908;50.806;4.424;2022-12-18T11:14:30;1.10;99.90
23471;DHT22;11908;50.806;4.424;2022-12-18T11:16:58;1.00;99.90
23471;DHT22;11908;50.806;4.424;2022-12-18T11:19:33;1.10;99.90
23471;DHT22;11908;50.806;4.424;2022-12-18T11:22:01;1.10;99.90
23471;DHT22;11908;50.806;4.424;2022-12-18T11:24:35;1.20;99.90
23471;DHT22;11908;50.806;4.424;2022-12-18T11:27:05;1.30;99.90
23471;DHT22;11908;50.806;4.424;2022-12-18T11:29:36;1.40;99.90
23471;DHT22;11908;50.806;4.424;2022-12-18T11:32:42;1.60;99.90
23471;DHT22;11908;50.806;4.424;2022-12-18T11:38:05;1.70;99.90
23471;DHT22;11908;50.806;4.424;2022-12-18T11:40:41;1.80;99.90
23471;DHT22;11908;50.806;4.424;2022-12-18T11:43:13;1.80;99.90
23471;DHT22;11908;50.806;4.424;2022-12-18T11:45:59;1.70;99.90
23471;DHT22;11908;50.806;4.424;2022-12-18T11:48:52;1.60;99.90
23471;DHT22;11908;50.806;4.424;2022-12-18T11:51:36;1.60;99.90
23471;DHT22;11908;50.806;4.424;2022-12-18T11:54:15;1.70;99.90
23471;DHT22;11908;50.806;4.424;2022-12-18T11:56:51;1.70;99.90
23471;DHT22;11908;50.806;4.424;2022-12-18T12:02:41;1.70;99.90
23471;DHT22;11908;50.806;4.424;2022-12-18T12:13:30;1.60;99.90
23471;DHT22;11908;50.806;4.424;2022-12-18T12:21:35;1.80;99.90
23471;DHT22;11908;50.806;4.424;2022-12-18T12:30:00;1.80;99.90
23471;DHT22;11908;50.806;4.424;2022-12-18T12:41:00;1.90;99.90
23471;DHT22;11908;50.806;4.424;2022-12-18T12:46:10;1.80;99.90
23471;DHT22;11908;50.806;4.424;2022-12-18T12:48:49;1.80;99.90
23471;DHT22;11908;50.806;4.424;2022-12-18T12:51:25;2.00;99.90
23471;DHT22;11908;50.806;4.424;2022-12-18T12:53:52;2.00;99.90
23471;DHT22;11908;50.806;4.424;2022-12-18T12:56:19;2.10;99.90
23471;DHT22;11908;50.806;4.424;2022-12-18T13:01:37;2.10;99.90
23471;DHT22;11908;50.806;4.424;2022-12-18T13:09:18;2.10;99.90
23471;DHT22;11908;50.806;4.424;2022-12-18T13:11:45;2.10;99.90
23471;DHT22;11908;50.806;4.424;2022-12-18T13:14:38;2.10;99.90
23471;DHT22;11908;50.806;4.424;2022-12-18T13:24:59;1.90;99.90
23471;DHT22;11908;50.806;4.424;2022-12-18T13:30:47;1.80;99.90
23471;DHT22;11908;50.806;4.424;2022-12-18T13:35:41;1.90;99.90
23471;DHT22;11908;50.806;4.424;2022-12-18T13:38:37;1.70;99.90
23471;DHT22;11908;50.806;4.424;2022-12-18T13:41:25;1.90;99.90
23471;DHT22;11908;50.806;4.424;2022-12-18T13:43:56;1.80;99.90
23471;DHT22;11908;50.806;4.424;2022-12-18T13:46:45;1.90;99.90
23471;DHT22;11908;50.806;4.424;2022-12-18T13:51:51;1.80;99.90
23471;DHT22;11908;50.806;4.424;2022-12-18T13:54:37;1.70;99.90
23471;DHT22;11908;50.806;4.424;2022-12-18T13:57:23;1.80;99.90
23471;DHT22;11908;50.806;4.424;2022-12-18T13:59:50;1.70;99.90
23471;DHT22;11908;50.806;4.424;2022-12-18T14:02:20;1.80;99.90
23471;DHT22;11908;50.806;4.424;2022-12-18T14:04:46;1.70;99.90
23471;DHT22;11908;50.806;4.424;2022-12-18T14:07:25;1.70;99.90
23471;DHT22;11908;50.806;4.424;2022-12-18T14:09:59;1.80;99.90
23471;DHT22;11908;50.806;4.424;2022-12-18T14:12:30;1.60;99.90
23471;DHT22;11908;50.806;4.424;2022-12-18T14:17:47;1.60;99.90
23471;DHT22;11908;50.806;4.424;2022-12-18T14:20:15;1.60;99.90
23471;DHT22;11908;50.806;4.424;2022-12-18T14:22:47;1.60;99.90
23471;DHT22;11908;50.806;4.424;2022-12-18T14:25:25;1.50;99.90
23471;DHT22;11908;50.806;4.424;2022-12-18T14:28:23;1.60;99.90
23471;DHT22;11908;50.806;4.424;2022-12-18T14:30:49;1.60;99.90
23471;DHT22;11908;50.806;4.424;2022-12-18T14:33:20;1.60;99.90
23471;DHT22;11908;50.806;4.424;2022-12-18T14:36:02;1.40;99.90
23471;DHT22;11908;50.806;4.424;2022-12-18T14:38:37;1.40;99.90
23471;DHT22;11908;50.806;4.424;2022-12-18T14:43:36;1.50;99.90
23471;DHT22;11908;50.806;4.424;2022-12-18T14:46:04;1.60;99.90
23471;DHT22;11908;50.806;4.424;2022-12-18T14:48:35;1.50;99.90
23471;DHT22;11908;50.806;4.424;2022-12-18T14:51:05;1.50;99.90
23471;DHT22;11908;50.806;4.424;2022-12-18T14:53:44;1.60;99.90
23471;DHT22;11908;50.806;4.424;2022-12-18T14:56:36;1.60;99.90
23471;DHT22;11908;50.806;4.424;2022-12-18T14:59:04;1.50;99.90
23471;DHT22;11908;50.806;4.424;2022-12-18T15:01:39;1.60;99.90
23471;DHT22;11908;50.806;4.424;2022-12-18T15:04:35;1.50;99.90
23471;DHT22;11908;50.806;4.424;2022-12-18T15:09:32;1.40;99.90
23471;DHT22;11908;50.806;4.424;2022-12-18T15:11:59;1.40;99.90
23471;DHT22;11908;50.806;4.424;2022-12-18T15:14:39;1.40;99.90
23471;DHT22;11908;50.806;4.424;2022-12-18T15:17:16;1.40;99.90
23471;DHT22;11908;50.806;4.424;2022-12-18T15:19:43;1.40;99.90
23471;DHT22;11908;50.806;4.424;2022-12-18T15:24:44;1.40;99.90
23471;DHT22;11908;50.806;4.424;2022-12-18T15:27:33;1.40;99.90
23471;DHT22;11908;50.806;4.424;2022-12-18T15:32:30;1.40;99.90
23471;DHT22;11908;50.806;4.424;2022-12-18T15:35:23;1.30;99.90
23471;DHT22;11908;50.806;4.424;2022-12-18T15:37:51;1.30;99.90
23471;DHT22;11908;50.806;4.424;2022-12-18T15:40:23;1.30;99.90
23471;DHT22;11908;50.806;4.424;2022-12-18T15:42:52;1.40;99.90
23471;DHT22;11908;50.806;4.424;2022-12-18T15:45:37;1.30;99.90
23471;DHT22;11908;50.806;4.424;2022-12-18T15:48:19;1.20;99.90
23471;DHT22;11908;50.806;4.424;2022-12-18T15:50:45;1.30;99.90
23471;DHT22;11908;50.806;4.424;2022-12-18T15:53:11;1.50;99.90
23471;DHT22;11908;50.806;4.424;2022-12-18T15:55:37;1.50;99.90
23471;DHT22;11908;50.806;4.424;2022-12-18T15:58:21;1.40;99.90
23471;DHT22;11908;50.806;4.424;2022-12-18T16:00:47;1.50;99.90
23471;DHT22;11908;50.806;4.424;2022-12-18T16:03:13;1.50;99.90
23471;DHT22;11908;50.806;4.424;2022-12-18T16:05:38;1.50;99.90
23471;DHT22;11908;50.806;4.424;2022-12-18T16:08:04;1.50;99.90
23471;DHT22;11908;50.806;4.424;2022-12-18T16:10:30;1.50;99.90
23471;DHT22;11908;50.806;4.424;2022-12-18T16:12:56;1.60;99.90
23471;DHT22;11908;50.806;4.424;2022-12-18T16:15:21;1.50;99.90
23471;DHT22;11908;50.806;4.424;2022-12-18T16:17:47;1.60;99.90
23471;DHT22;11908;50.806;4.424;2022-12-18T16:20:19;1.60;99.90
23471;DHT22;11908;50.806;4.424;2022-12-18T16:22:45;1.60;99.90
23471;DHT22;11908;50.806;4.424;2022-12-18T16:25:23;1.70;99.90
23471;DHT22;11908;50.806;4.424;2022-12-18T16:27:50;1.70;99.90
23471;DHT22;11908;50.806;4.424;2022-12-18T16:30:18;1.70;99.90
23471;DHT22;11908;50.806;4.424;2022-12-18T16:32:44;1.60;99.90
23471;DHT22;11908;50.806;4.424;2022-12-18T16:35:12;1.60;99.90
23471;DHT22;11908;50.806;4.424;2022-12-18T16:37:38;1.60;99.90
23471;DHT22;11908;50.806;4.424;2022-12-18T16:40:05;1.60;99.90
23471;DHT22;11908;50.806;4.424;2022-12-18T16:42:31;1.70;99.90
23471;DHT22;11908;50.806;4.424;2022-12-18T16:44:56;1.70;99.90
23471;DHT22;11908;50.806;4.424;2022-12-18T16:47:22;1.70;99.90
23471;DHT22;11908;50.806;4.424;2022-12-18T16:49:48;1.70;99.90
23471;DHT22;11908;50.806;4.424;2022-12-18T16:52:17;1.70;99.90
23471;DHT22;11908;50.806;4.424;2022-12-18T16:54:43;1.70;99.90
23471;DHT22;11908;50.806;4.424;2022-12-18T16:57:15;1.70;99.90
23471;DHT22;11908;50.806;4.424;2022-12-18T16:59:41;1.80;99.90
23471;DHT22;11908;50.806;4.424;2022-12-18T17:02:21;1.80;99.90
23471;DHT22;11908;50.806;4.424;2022-12-18T17:04:47;1.80;99.90
23471;DHT22;11908;50.806;4.424;2022-12-18T17:07:14;1.90;99.90
23471;DHT22;11908;50.806;4.424;2022-12-18T17:09:40;1.90;99.90
23471;DHT22;11908;50.806;4.424;2022-12-18T17:12:06;1.90;99.90
23471;DHT22;11908;50.806;4.424;2022-12-18T17:14:33;1.90;99.90
23471;DHT22;11908;50.806;4.424;2022-12-18T17:16:59;1.80;99.90
23471;DHT22;11908;50.806;4.424;2022-12-18T17:19:26;1.90;99.90
23471;DHT22;11908;50.806;4.424;2022-12-18T17:21:52;1.90;99.90
23471;DHT22;11908;50.806;4.424;2022-12-18T17:24:19;1.90;99.90
23471;DHT22;11908;50.806;4.424;2022-12-18T17:26:46;2.00;99.90
23471;DHT22;11908;50.806;4.424;2022-12-18T17:29:15;2.00;99.90
23471;DHT22;11908;50.806;4.424;2022-12-18T17:31:41;1.90;99.90
23471;DHT22;11908;50.806;4.424;2022-12-18T17:34:07;1.90;99.90
23471;DHT22;11908;50.806;4.424;2022-12-18T17:36:34;1.90;99.90
23471;DHT22;11908;50.806;4.424;2022-12-18T17:39:01;1.90;99.90
23471;DHT22;11908;50.806;4.424;2022-12-18T17:41:28;1.90;99.90
23471;DHT22;11908;50.806;4.424;2022-12-18T17:43:56;1.90;99.90
23471;DHT22;11908;50.806;4.424;2022-12-18T17:46:22;1.90;99.90